Tiempo atmosférico en la estación meteorológica de Biescas, Huesca (1100 m.)



Fecha
DESCASC
Temp. máxima en grados centígrados (hora)
DESCASC
Temp. mínima en grados centígrados (hora)
DESCASC
Temp. media en grados centígrados
DESCASC
Racha de viento máxima en m/sg (hora)
DESCASC
Velocidad máxima media en intervalos de 10 minutos(hora)
DESCASC
Precipitaciones diarias en mm
DESCASC
Precipitaciones de 00:00 a 06:00 en mm
DESCASC
Precipitaciones de 06:00 a 12:00 en mm
DESCASC
Precipitaciones de 12:00 a 18:00 en mm
DESCASC
Precipitaciones de 18:00 a 24:00 en mm
DESCASC
28-02-2021 -- (--) -- (--) -- -- (--) -- (--) -- 0 8 2.8 --
27-02-2021 16.1 (15:00) 0.3 (05:20) 8.2 4.44 (14:00) 1.94 (14:10) 0 0 0 0 0
26-02-2021 16 (15:10) 0 (07:40) 8 5.83 (14:10) 2.22 (14:50) 0 0 0 0 0
25-02-2021 15.4 (15:00) -1.4 (-00:0) 7 6.39 (12:30) 2.78 (12:50) 0 0 0 0 0
24-02-2021 14.4 (12:50) 1 (00:00) 7.7 11.39 (14:00) 3.89 (14:20) 0 0 0 0 0
23-02-2021 11.1 (17:10) 2.1 (00:00) 6.6 10.28 (11:40) 3.33 (12:00) 0.8 0.2 0.6 0 0
22-02-2021 7.1 (10:00) 3.4 (00:00) 5.3 7.78 (08:40) 2.78 (09:40) 45 10.4 16.4 14.4 3.8
21-02-2021 14.5 (11:50) 6.5 (00:00) 10.5 16.94 (01:40) 5.83 (02:30) 2.6 0 0 0 2.6
20-02-2021 16.6 (14:30) 1.5 (00:00) 9.1 17.22 (23:59) 5.28 (22:00) 0 0 0 0 0
19-02-2021 13.2 (15:10) 0.7 (00:00) 6.9 7.5 (13:50) 3.89 (12:30) 0 0 0 0 0
18-02-2021 13.4 (15:10) 1.2 (00:00) 7.3 8.89 (14:50) 3.89 (13:30) 0 0 0 0 0
17-02-2021 12.1 (15:20) 1.2 (00:00) 6.7 6.67 (14:10) 3.33 (14:20) 0 0 0 0 0
16-02-2021 14.3 (15:20) -1.4 (-00:0) 6.5 8.06 (15:50) 3.06 (15:50) 0 0 0 0 0
15-02-2021 11.7 (15:40) 1.4 (00:00) 6.5 5.83 (17:10) 1.94 (17:10) 0 0 0 0 0
14-02-2021 10.6 (14:00) -2.2 (-00:0) 4.2 6.11 (15:20) 2.78 (12:30) 0 0 0 0 0
13-02-2021 11.7 (14:40) 0.1 (00:00) 5.9 9.44 (00:20) 3.33 (14:00) 0 0 0 0 0
12-02-2021 8.8 (14:50) 2.4 (00:00) 5.6 10 (18:20) 3.89 (21:00) 9.6 0 6.4 2.8 0.4
11-02-2021 9.9 (16:10) -3.4 (-00:0) 3.2 4.44 (13:40) 1.94 (15:30) 0 0 0 0 0
10-02-2021 5.4 (13:20) -0.8 (-00:0) 2.3 6.94 (17:50) 2.22 (02:30) 6.4 2.6 3.6 0 0.2
09-02-2021 1.8 (14:10) -0.6 (-00:0) 0.6 7.22 (14:10) 1.67 (00:40) 23.8 0 5.8 15.8 2.2
08-02-2021 3.9 (16:50) 0.2 (00:00) 2.1 4.17 (14:20) 1.39 (14:20) 6.4 2.6 2.4 1.4 0
07-02-2021 7.2 (14:50) -0.8 (-00:0) 3.2 8.33 (13:30) 3.33 (12:40) 0 0 0 0 0
06-02-2021 12.6 (00:20) 2.7 (00:00) 7.7 11.11 (00:10) 3.61 (00:20) 9.2 0 5.2 3.6 0.4
05-02-2021 14.1 (13:40) 4.4 (00:00) 9.3 11.39 (23:40) 3.33 (23:59) 0.2 0.2 0 0 0
04-02-2021 13.6 (15:10) 6.3 (00:00) 10 7.78 (15:20) 2.5 (15:50) 0.2 0 0.2 0 0
03-02-2021 9.6 (15:00) 1.3 (00:00) 5.5 8.06 (12:00) 3.61 (12:00) 1 0 0.2 0.8 0
02-02-2021 11.1 (15:30) 1.1 (00:00) 6.1 3.61 (14:10) 1.67 (16:30) 0 0 0 0 0
01-02-2021 7.5 (15:30) 4 (00:00) 5.8 8.89 (10:20) 2.78 (10:20) 19.4 7.2 3 7.6 1.6
31-01-2021 9.9 (14:30) 1.2 (00:00) 5.5 9.44 (12:00) 3.89 (10:20) 13.2 6.4 3.8 0.4 2.6
30-01-2021 7.1 (06:40) 1.3 (00:00) 4.2 7.5 (06:20) 3.33 (06:20) 13.8 0 9 3.8 1

Gráficas

Temp. máximas Temp. mínimas Temp. medias Precipitaciones Rachas de viento máximas Velocidades máximas media en intervalos de 10 minutos

Datos horarios

Fecha y hora oficial Temperatura (ºC) Velocidad del viento (km/h) Dirección del viento Racha (km/h) Dirección de racha Precipitación (mm) Presión (hPa) Tendencia (hPa) Humedad (%)
2021-02-28 23:00:00 4.7 5 Este 26 Sudoeste 0 -- -- 81
2021-02-28 22:00:00 3.5 5 Sudoeste 18 Noroeste 0 -- -- 89
2021-02-28 21:00:00 -- -- -- -- -- -- -- -- --
2021-02-28 20:00:00 2.5 3 Oeste 12 Sudeste 0.2 -- -- 96
2021-02-28 19:00:00 2.4 2 Noroeste 5 Este 0 -- -- 96
2021-02-28 18:00:00 2.6 0 Calma 9 Sudeste 0 -- -- 95
2021-02-28 17:00:00 2.9 3 Sur 10 Sur 0.4 -- -- 95
2021-02-28 16:00:00 2.8 0 Calma 7 Sudoeste 0.4 -- -- 94
2021-02-28 15:00:00 2.6 3 Sudoeste 6 Sur 1.2 -- -- 94
2021-02-28 14:00:00 2.1 -- -- -- -- 0.4 -- -- 92
2021-02-28 13:00:00 1.3 0 Calma 5 Este 0.4 -- -- 94
2021-02-28 12:00:00 0.8 0 Calma 2 Oeste -- -- -- 94
2021-02-28 11:00:00 0.6 0 Calma 2 Sudoeste 2.8 -- -- 94
2021-02-28 10:00:00 0.5 0 Calma 3 Sur 2 -- -- 92
2021-02-28 09:00:00 0.4 0 Calma 3 Sur 0 -- -- 87
2021-02-28 08:00:00 -0.5 0 Calma 4 Noroeste 0 -- -- 89
2021-02-28 07:00:00 -0.9 0 Calma 3 Sudoeste 0 -- -- 86
2021-02-28 06:00:00 -1 0 Calma 3 Noroeste 0 -- -- 87
2021-02-28 05:00:00 -1.2 0 Calma 4 Noroeste 0 -- -- 85
2021-02-28 04:00:00 -1.1 0 Calma 3 Oeste 0 -- -- 83
2021-02-28 03:00:00 -0.9 0 Calma 4 Oeste 0 -- -- 82
2021-02-28 02:00:00 -0.6 0 Calma 3 Noroeste 0 -- -- 81
2021-02-28 01:00:00 0 0 Calma 3 Oeste 0 -- -- 78
2021-02-28 00:00:00 0.7 0 Calma 3 Noroeste 0 -- -- 78
2021-02-27 23:00:00 1.5 2 Oeste 4 Sudoeste 0 -- -- 76
2021-02-27 22:00:00 2.2 0 Calma 5 Oeste 0 -- -- 74
2021-02-27 21:00:00 3.4 0 Calma 5 Sudoeste 0 -- -- 71
2021-02-27 20:00:00 5 2 Noroeste 6 Nordeste 0 -- -- 65
2021-02-27 19:00:00 7.2 0 Calma 10 Norte 0 -- -- 55
2021-02-27 18:00:00 10 2 Oeste 13 Norte 0 -- -- 49
2021-02-27 17:00:00 12.6 4 Noroeste 15 Norte 0 -- -- 34
2021-02-27 16:00:00 15.3 2 Noroeste 15 Este 0 -- -- 29
2021-02-27 15:00:00 16.1 4 Sudeste 13 Sudeste 0 -- -- 39
2021-02-27 14:00:00 15.3 6 Sudeste 16 Sudeste 0 -- -- 41
2021-02-27 13:00:00 15 4 Sudeste 12 Este 0 -- -- 37
2021-02-27 12:00:00 13.6 5 Sudeste 10 Sudeste 0 -- -- 37
2021-02-27 11:00:00 11.8 5 Sudeste 9 Este 0 -- -- 45
2021-02-27 10:00:00 6.3 4 Sudeste 6 Sur 0 -- -- 62
2021-02-27 09:00:00 1.9 2 Noroeste 4 Sudoeste 0 -- -- 76
2021-02-27 08:00:00 1 0 Calma 4 Norte 0 -- -- 75
2021-02-27 07:00:00 0.8 0 Calma 4 Oeste 0 -- -- 75
2021-02-27 06:00:00 0.4 0 Calma 3 Noroeste 0 -- -- 74
2021-02-27 05:00:00 0.4 0 Calma 3 Oeste 0 -- -- 76
2021-02-27 04:00:00 0.6 0 Calma 3 Oeste 0 -- -- 77
2021-02-27 03:00:00 1.1 2 Norte 3 Sudoeste 0 -- -- 76
2021-02-27 02:00:00 1.7 0 Calma 3 Oeste 0 -- -- 77
2021-02-27 01:00:00 2.4 0 Calma 4 Oeste 0 -- -- 79
2021-02-27 00:00:00 3 0 Calma 4 Oeste 0 -- -- 79
2021-02-26 23:00:00 3.8 0 Calma 3 Oeste 0 -- -- 77
2021-02-26 22:00:00 4.6 0 Calma 3 Oeste 0 -- -- 75
2021-02-26 21:00:00 5.6 0 Calma 4 Sudoeste 0 -- -- 72
2021-02-26 20:00:00 6.6 0 Calma 4 Sudoeste 0 -- -- 69
2021-02-26 19:00:00 8.3 0 Calma 3 Noroeste 0 -- -- 62
2021-02-26 18:00:00 11.3 2 Sur 18 Sudoeste 0 -- -- 53
2021-02-26 17:00:00 13.8 6 Sudoeste 18 Sudeste 0 -- -- 41
2021-02-26 16:00:00 15.1 6 Sur 19 Sur 0 -- -- 41
2021-02-26 15:00:00 15.9 6 Sur 21 Sur 0 -- -- 40
2021-02-26 14:00:00 14.7 7 Sudeste 18 Sudeste 0 -- -- 44
2021-02-26 13:00:00 13.8 8 Sudeste 14 Sudeste 0 -- -- 36
2021-02-26 12:00:00 12.2 3 Sudeste 7 Sudeste 0 -- -- 45
2021-02-26 11:00:00 7.2 2 Este 4 Este 0 -- -- 56
2021-02-26 10:00:00 2 0 Calma 4 Este 0 -- -- 78
2021-02-26 09:00:00 0.3 0 Calma 3 Oeste 0 -- -- 84
2021-02-26 08:00:00 0 0 Calma 2 Noroeste 0 -- -- 84
2021-02-26 07:00:00 0.2 0 Calma 2 Oeste 0 -- -- 83
2021-02-26 06:00:00 0.7 0 Calma 3 Noroeste 0 -- -- 83
2021-02-26 05:00:00 1 0 Calma 3 Sudoeste 0 -- -- 84
2021-02-26 04:00:00 1.1 0 Calma 3 Oeste 0 -- -- 82
2021-02-26 03:00:00 1.4 0 Calma 2 Sudeste 0 -- -- 83
2021-02-26 02:00:00 1.8 0 Calma 3 Oeste 0 -- -- 82
2021-02-26 01:00:00 2.3 0 Calma 4 Oeste 0 -- -- 81
2021-02-26 00:00:00 2.7 0 Calma 3 Oeste 0 -- -- 81
2021-02-25 23:00:00 3.2 0 Calma 4 Sudoeste 0 -- -- 77
2021-02-25 22:00:00 4 0 Calma 3 Este 0 -- -- 75
2021-02-25 21:00:00 5.3 0 Calma 3 Noroeste 0 -- -- 71
2021-02-25 20:00:00 7.4 0 Calma 4 Sur 0 -- -- 66
2021-02-25 19:00:00 10.4 2 Sur 18 Sudoeste 0 -- -- 51
2021-02-25 18:00:00 11.2 3 Noroeste 11 Oeste 0 -- -- 41
2021-02-25 17:00:00 13.9 4 Oeste 13 Sudeste 0 -- -- 33
2021-02-25 16:00:00 15.1 6 Sudeste 17 Este 0 -- -- 25
2021-02-25 15:00:00 15.4 4 Sudeste 14 Sur 0 -- -- 27
2021-02-25 14:00:00 14.1 7 Sudeste 21 Sudoeste 0 -- -- 40
2021-02-25 13:00:00 12.2 10 Sudoeste 23 Este 0 -- -- 45
2021-02-25 12:00:00 10.6 7 Sur 17 Sur 0 -- -- 44
2021-02-25 11:00:00 5.6 2 Este 6 Este 0 -- -- 61
2021-02-25 10:00:00 1.1 0 Calma 4 Este 0 -- -- 83
2021-02-25 09:00:00 -0.7 0 Calma 4 Sur 0 -- -- 91
2021-02-25 08:00:00 -1.3 0 Calma 4 Oeste 0 -- -- 91
2021-02-25 07:00:00 -1.1 2 Noroeste 5 Sudoeste 0 -- -- 91
2021-02-25 06:00:00 -1 0 Calma 4 Oeste 0 -- -- 91
2021-02-25 05:00:00 -0.6 0 Calma 4 Oeste 0 -- -- 91
2021-02-25 04:00:00 -0.2 0 Calma 4 Oeste 0 -- -- 91
2021-02-25 03:00:00 0.3 0 Calma 5 Sudoeste 0 -- -- 90
2021-02-25 02:00:00 0.8 0 Calma 4 Este 0 -- -- 89
2021-02-25 01:00:00 1.3 0 Calma 5 Este 0 -- -- 88
2021-02-25 00:00:00 2 0 Calma 4 Oeste 0 -- -- 86
2021-02-24 23:00:00 2.9 0 Calma 3 Noroeste 0 -- -- 83
2021-02-24 22:00:00 4.1 0 Calma 3 Sudoeste 0 -- -- 79
2021-02-24 21:00:00 5.8 0 Calma 6 Sur 0 -- -- 73
2021-02-24 20:00:00 8 0 Calma 23 Sudoeste 0 -- -- 67
2021-02-24 19:00:00 11.5 8 Oeste 24 Sudoeste 0 -- -- 50
2021-02-24 18:00:00 12.2 4 Sudoeste 26 Oeste 0 -- -- 46
2021-02-24 17:00:00 12.9 5 Norte 22 Sudeste 0 -- -- 44
2021-02-24 16:00:00 13.5 6 Noroeste 28 Este 0 -- -- 42
2021-02-24 15:00:00 14 10 Sudeste 28 Sudeste 0 -- -- 44
2021-02-24 14:00:00 14.2 9 Sur 41 Este 0 -- -- 44
2021-02-24 13:00:00 14.2 12 Sur 35 Este 0 -- -- 45
2021-02-24 12:00:00 13.5 6 Este 21 Sur 0 -- -- 54
2021-02-24 11:00:00 7.1 3 Este 10 Este 0 -- -- 86
2021-02-24 10:00:00 3.1 2 Oeste 6 Oeste 0 -- -- 100
2021-02-24 09:00:00 1.6 0 Calma 5 Sudoeste 0 -- -- 98
2021-02-24 08:00:00 1 2 Oeste 5 Este 0 -- -- 97
2021-02-24 07:00:00 1.1 0 Calma 6 Oeste 0 -- -- 97
2021-02-24 06:00:00 1.1 2 Sur 5 Este 0 -- -- 97
2021-02-24 05:00:00 1.2 2 Norte 5 Oeste 0 -- -- 96
2021-02-24 04:00:00 1.4 0 Calma 8 Este 0 -- -- 96
2021-02-24 03:00:00 1.5 2 Noroeste 5 Noroeste 0 -- -- 96
2021-02-24 02:00:00 1.7 0 Calma 4 Sudoeste 0 -- -- 95
2021-02-24 01:00:00 2.1 0 Calma 4 Oeste 0 -- -- 94
2021-02-24 00:00:00 2.6 0 Calma 6 Este 0 -- -- 93
2021-02-23 23:00:00 3.1 0 Calma 4 Sudeste 0 -- -- 91
2021-02-23 22:00:00 3.8 2 Sudoeste 5 Sudoeste 0 -- -- 88
2021-02-23 21:00:00 4.8 0 Calma 6 Noroeste 0 -- -- 85
2021-02-23 20:00:00 6.3 2 Oeste 10 Norte 0 -- -- 79
2021-02-23 19:00:00 8.7 3 Noroeste 21 Sur 0 -- -- 69
2021-02-23 18:00:00 11.1 8 Sudoeste 27 Sur 0 -- -- 53
2021-02-23 17:00:00 11 9 Sur 28 Sur 0 -- -- 50
2021-02-23 16:00:00 10.9 10 Sudoeste 28 Oeste 0 -- -- 56
2021-02-23 15:00:00 10.5 8 Sur 36 Sudeste 0 -- -- 60
2021-02-23 14:00:00 10.4 8 Sur 36 Sur 0 -- -- 63
2021-02-23 13:00:00 10.1 12 Sur 33 Sur 0 -- -- 65
2021-02-23 12:00:00 9.4 12 Sur 37 Sudoeste 0.2 -- -- 66
2021-02-23 11:00:00 8.2 6 Sur 24 Sur 0 -- -- 80
2021-02-23 10:00:00 5.3 3 Oeste 8 Noroeste 0 -- -- 99
2021-02-23 09:00:00 4.1 0 Calma 9 Este 0.2 -- -- 99
2021-02-23 08:00:00 3.4 2 Oeste 7 Este 0.2 -- -- 99
2021-02-23 07:00:00 2.5 2 Nordeste 8 Sur 0 -- -- 98
2021-02-23 06:00:00 2.3 0 Calma 9 Sur 0 -- -- 98
2021-02-23 05:00:00 2.1 3 Sur 5 Noroeste 0 -- -- 97
2021-02-23 04:00:00 2.8 0 Calma 6 Oeste 0 -- -- 97
2021-02-23 03:00:00 3.5 0 Calma 3 Oeste 0 -- -- 97
2021-02-23 02:00:00 3.6 0 Calma 3 Norte 0.2 -- -- 97
2021-02-23 01:00:00 3.6 0 Calma 4 Noroeste 0 -- -- 97
2021-02-23 00:00:00 3.5 0 Calma 3 Noroeste 0.2 -- -- 97
2021-02-22 23:00:00 3.5 0 Calma 2 Sur 0.8 -- -- 97
2021-02-22 22:00:00 3.4 0 Calma 3 Sudoeste 0.4 -- -- 96
2021-02-22 21:00:00 3.4 0 Calma 2 Sudeste 0.2 -- -- 96
2021-02-22 20:00:00 3.4 0 Calma 4 Oeste 1 -- -- 95
2021-02-22 19:00:00 3.5 0 Calma -- -- 1.2 -- -- 92
2021-02-22 18:00:00 3.5 0 Calma 3 Este 1 -- -- 92
2021-02-22 17:00:00 3.4 0 Calma 3 Oeste 1.8 -- -- 90
2021-02-22 16:00:00 3.7 2 Oeste 6 Sudoeste 3 -- -- 90
2021-02-22 15:00:00 4.7 3 Oeste 6 Sudoeste 3.2 -- -- 88
2021-02-22 14:00:00 5.5 0 Calma 3 Norte 3 -- -- 89
2021-02-22 13:00:00 5.9 0 Calma 2 Sudeste 2.4 -- -- 91
2021-02-22 12:00:00 6.1 0 Calma 3 Oeste 1.6 -- -- 94
2021-02-22 11:00:00 6.1 0 Calma 15 Sur 1.8 -- -- 93
2021-02-22 10:00:00 7.1 10 Sur 24 Sur 1.2 -- -- 78
2021-02-22 09:00:00 5.9 3 Oeste 28 Sudoeste 2.4 -- -- 93
2021-02-22 08:00:00 5.9 3 Sudoeste 19 Sudeste 3.6 -- -- 95
2021-02-22 07:00:00 6 4 Oeste 14 Noroeste 5.8 -- -- 96
2021-02-22 06:00:00 6.3 3 Sur 22 Noroeste 3.4 -- -- 93
2021-02-22 05:00:00 5.6 4 Nordeste 14 Sudeste 0.8 -- -- 96
2021-02-22 04:00:00 5.6 4 Oeste 11 Sudoeste 1.2 -- -- 96
2021-02-22 03:00:00 5.8 2 Sudoeste 5 Oeste 1.2 -- -- 94
2021-02-22 02:00:00 5.9 0 Calma 4 Norte 2 -- -- 95
2021-02-22 01:00:00 6.1 2 Sudoeste 5 Sur 1.8 -- -- 93
2021-02-22 00:00:00 6.5 2 Sur 8 Sudoeste 0.8 -- -- 89
2021-02-21 23:00:00 7.6 2 Noroeste 34 Sur 1.8 -- -- 83
2021-02-21 22:00:00 10.7 8 Sudoeste 28 Sur 0 -- -- 55
2021-02-21 21:00:00 11 8 Norte 35 Este 0 -- -- 50
2021-02-21 20:00:00 12 12 Sudoeste 35 Sudoeste 0 -- -- 42
2021-02-21 19:00:00 12 10 Oeste 36 Sudoeste 0 -- -- 42
2021-02-21 18:00:00 12.1 14 Sudoeste 44 Sur 0 -- -- 40
2021-02-21 17:00:00 12.8 10 Noroeste 23 Oeste 0 -- -- 40
2021-02-21 16:00:00 13.1 8 Noroeste 25 Oeste 0 -- -- 38
2021-02-21 15:00:00 13.1 5 Este 22 Norte 0 -- -- 38
2021-02-21 14:00:00 13.2 5 Nordeste 29 Este 0 -- -- 35
2021-02-21 13:00:00 13.8 6 Nordeste 40 Norte 0 -- -- 35
2021-02-21 12:00:00 14.1 8 Norte 43 Sur 0 -- -- 34
2021-02-21 11:00:00 13.7 16 Sur 48 Sur 0 -- -- 30
2021-02-21 10:00:00 11.3 5 Este 16 Norte 0 -- -- 35
2021-02-21 09:00:00 11.3 5 Noroeste 26 Sudoeste 0 -- -- 34
2021-02-21 08:00:00 8.3 3 Noroeste 35 Oeste 0 -- -- 45
2021-02-21 07:00:00 9.4 9 Sudoeste 36 Sur 0 -- -- 36
2021-02-21 06:00:00 10.3 10 Sudoeste 37 Oeste 0 -- -- 32
2021-02-21 05:00:00 11.3 6 Sudeste 39 Sur 0 -- -- 33
2021-02-21 04:00:00 12.2 14 Sur 41 Sudoeste -- -- -- 26
2021-02-21 03:00:00 12.5 16 Sur 49 Sur 0 -- -- 26
2021-02-21 02:00:00 12.9 20 Sur 61 Sur 0 -- -- 25
2021-02-21 01:00:00 13.4 18 Sur 57 Sur 0 -- -- 25
2021-02-21 00:00:00 13 14 Sur 62 Oeste 0 -- -- 25
2021-02-20 23:00:00 10.9 5 Sudoeste 32 Sur 0 -- -- 33
2021-02-20 22:00:00 13.3 19 Sur 55 Sur 0 -- -- 27
2021-02-20 21:00:00 13.1 11 Sur 46 Sur 0 -- -- 27
2021-02-20 20:00:00 13.2 9 Sur 26 Sudeste 0 -- -- 28
2021-02-20 19:00:00 14.6 8 Sur 37 Sur 0 -- -- 26
2021-02-20 18:00:00 14.8 10 Sur 45 Sur 0 -- -- 26
2021-02-20 17:00:00 15.1 15 Sur 37 Sudeste 0 -- -- 28
2021-02-20 16:00:00 15.4 13 Sudeste 35 Sudeste 0 -- -- 30
2021-02-20 15:00:00 16 14 Sudeste 33 Este 0 -- -- 28
2021-02-20 14:00:00 15.9 13 Sur 37 Sur 0 -- -- 28
2021-02-20 13:00:00 15.2 12 Sudeste 37 Sudeste 0 -- -- 30
2021-02-20 12:00:00 14.3 18 Sudeste 49 Sur 0 -- -- 31
2021-02-20 11:00:00 13.9 18 Sudeste 52 Sudoeste 0 -- -- 29
2021-02-20 10:00:00 8.1 7 Sudoeste 21 Sur 0 -- -- 49
2021-02-20 09:00:00 2.9 3 Oeste 9 Este 0 -- -- 80
2021-02-20 08:00:00 1.7 2 Noroeste 8 Sudeste 0 -- -- 82
2021-02-20 07:00:00 1.5 2 Sur 11 Oeste 0 -- -- 83
2021-02-20 06:00:00 1.5 3 Oeste 6 Sudeste 0 -- -- 84
2021-02-20 05:00:00 1.6 3 Sudeste 8 Este 0 -- -- 85
2021-02-20 04:00:00 1.6 0 Calma 6 Este 0 -- -- 83
2021-02-20 03:00:00 1.6 2 Noroeste 6 Este 0 -- -- 84
2021-02-20 02:00:00 1.8 0 Calma 5 Oeste 0 -- -- 83
2021-02-20 01:00:00 1.7 0 Calma 5 Oeste 0 -- -- 82
2021-02-20 00:00:00 2.1 2 Nordeste 5 Oeste 0 -- -- 80
2021-02-19 23:00:00 2.4 2 Sudoeste 5 Sudoeste 0 -- -- 77
2021-02-19 22:00:00 3.1 2 Sur 5 Noroeste 0 -- -- 75
2021-02-19 21:00:00 4 0 Calma 5 Sudeste 0 -- -- 71
2021-02-19 20:00:00 5.4 0 Calma 4 Sur 0 -- -- 66
2021-02-19 19:00:00 7.4 0 Calma 13 Nordeste 0 -- -- 59
2021-02-19 18:00:00 9.9 5 Norte 12 Norte 0 -- -- 49
2021-02-19 17:00:00 11.6 4 Norte 13 Noroeste 0 -- -- 41
2021-02-19 16:00:00 12.7 4 Norte 14 Sudoeste 0 -- -- 36
2021-02-19 15:00:00 13 5 Norte 23 Sudeste 0 -- -- 39
2021-02-19 14:00:00 12.7 11 Sudeste 27 Sudeste 0 -- -- 45
2021-02-19 13:00:00 12.3 10 Sudeste 25 Sudeste 0 -- -- 43
2021-02-19 12:00:00 11.5 11 Sudeste 22 Este 0 -- -- 47
2021-02-19 11:00:00 5.8 2 Nordeste 6 Este 0 -- -- 76
2021-02-19 10:00:00 2.3 0 Calma 5 Sudeste 0 -- -- 86
2021-02-19 09:00:00 1 2 Noroeste 5 Oeste 0 -- -- 90
2021-02-19 08:00:00 0.7 0 Calma 6 Oeste 0 -- -- 88
2021-02-19 07:00:00 1.1 0 Calma 4 Sudoeste 0 -- -- 87
2021-02-19 06:00:00 1.6 2 Sudoeste 5 Sur 0 -- -- 86
2021-02-19 05:00:00 2 2 Oeste 7 Oeste 0 -- -- 84
2021-02-19 04:00:00 2.3 0 Calma 4 Nordeste 0 -- -- 83
2021-02-19 03:00:00 3.1 0 Calma 4 Este 0 -- -- 80
2021-02-19 02:00:00 3.9 0 Calma 4 Oeste 0 -- -- 79
2021-02-19 01:00:00 4.6 0 Calma 6 Sudeste 0 -- -- 75
2021-02-19 00:00:00 4.9 0 Calma 6 Sur 0 -- -- 75
2021-02-18 23:00:00 5.1 0 Calma 7 Este 0 -- -- 74
2021-02-18 22:00:00 6.1 0 Calma 5 Sur 0 -- -- 70
2021-02-18 21:00:00 6.9 0 Calma 4 Sudeste 0 -- -- 68
2021-02-18 20:00:00 7.3 0 Calma 4 Este 0 -- -- 66
2021-02-18 19:00:00 8.4 0 Calma 7 Sur 0 -- -- 60
2021-02-18 18:00:00 10 4 Sudoeste 13 Este 0 -- -- 47
2021-02-18 17:00:00 12.1 8 Oeste 22 Sudoeste 0 -- -- 37
2021-02-18 16:00:00 12.7 7 Este 21 Este 0 -- -- 35
2021-02-18 15:00:00 13.3 6 Nordeste 32 Sudeste 0 -- -- 36
2021-02-18 14:00:00 13.2 10 Sudeste 31 Sudeste 0 -- -- 37
2021-02-18 13:00:00 12.9 9 Nordeste 29 Este 0 -- -- 36
2021-02-18 12:00:00 12 4 Norte 16 Noroeste 0 -- -- 43
2021-02-18 11:00:00 10.9 6 Norte 15 Este 0 -- -- 46
2021-02-18 10:00:00 2.6 3 Sudoeste 8 Sur 0 -- -- 96
2021-02-18 09:00:00 1.6 3 Sudeste 8 Este 0 -- -- 96
2021-02-18 08:00:00 1.2 0 Calma 6 Oeste 0 -- -- 95
2021-02-18 07:00:00 1.6 2 Sur 5 Sur 0 -- -- 94
2021-02-18 06:00:00 2.1 0 Calma 5 Este 0 -- -- 93
2021-02-18 05:00:00 2.6 0 Calma 4 Oeste 0 -- -- 93
2021-02-18 04:00:00 3.1 0 Calma 5 Este 0 -- -- 93
2021-02-18 03:00:00 3.4 0 Calma 5 Noroeste 0 -- -- 91
2021-02-18 02:00:00 3.8 2 Noroeste 6 Este 0 -- -- 90
2021-02-18 01:00:00 4.2 0 Calma 4 Norte 0 -- -- 88
2021-02-18 00:00:00 4.7 0 Calma 4 Sudeste 0 -- -- 87
2021-02-17 23:00:00 5.1 0 Calma 3 Oeste 0 -- -- 83
2021-02-17 22:00:00 6.3 0 Calma 2 Sur 0 -- -- 81
2021-02-17 21:00:00 7.1 0 Calma 5 Norte 0 -- -- 78
2021-02-17 20:00:00 8.5 0 Calma 8 Norte 0 -- -- 73
2021-02-17 19:00:00 10.1 4 Noroeste 16 Oeste 0 -- -- 64
2021-02-17 18:00:00 10.5 4 Norte 16 Sudeste 0 -- -- 62
2021-02-17 17:00:00 11.3 6 Sudeste 22 Sudeste 0 -- -- 57
2021-02-17 16:00:00 11.8 8 Sudeste 23 Sudeste 0 -- -- 52
2021-02-17 15:00:00 11.9 6 Sudeste 24 Este 0 -- -- 51
2021-02-17 14:00:00 12 7 Sudeste 22 Sudeste 0 -- -- 51
2021-02-17 13:00:00 10.5 4 Sudeste 16 Sudeste 0 -- -- 59
2021-02-17 12:00:00 6.9 3 Nordeste 10 Nordeste 0 -- -- 74
2021-02-17 11:00:00 4.9 0 Calma 4 Norte 0 -- -- 84
2021-02-17 10:00:00 3.5 0 Calma 3 Sudeste 0 -- -- 90
2021-02-17 09:00:00 2.4 0 Calma 4 Noroeste 0 -- -- 93
2021-02-17 08:00:00 1.6 0 Calma 5 Sur 0 -- -- 95
2021-02-17 07:00:00 1.2 0 Calma 3 Noroeste 0 -- -- 93
2021-02-17 06:00:00 1.7 2 Nordeste 4 Este 0 -- -- 91
2021-02-17 05:00:00 2.4 0 Calma 3 Oeste 0 -- -- 89
2021-02-17 04:00:00 3.2 0 Calma 4 Nordeste 0 -- -- 86
2021-02-17 03:00:00 4.3 0 Calma 5 Sur 0 -- -- 84
2021-02-17 02:00:00 4.8 2 Oeste 6 Sudeste 0 -- -- 84
2021-02-17 01:00:00 5 0 Calma 5 Este 0 -- -- 82
2021-02-17 00:00:00 5.2 0 Calma 6 Sudeste 0 -- -- 81
2021-02-16 23:00:00 5.4 0 Calma 4 Sudeste 0 -- -- 78
2021-02-16 22:00:00 5.7 0 Calma 4 Sudoeste 0 -- -- 77
2021-02-16 21:00:00 6.8 2 Este 5 Este 0 -- -- 72
2021-02-16 20:00:00 8.3 3 Sudeste 10 Noroeste 0 -- -- 67
2021-02-16 19:00:00 9.8 5 Norte 20 Sudoeste 0 -- -- 59
2021-02-16 18:00:00 12.2 4 Oeste 21 Sudoeste 0 -- -- 43
2021-02-16 17:00:00 13.3 7 Sur 21 Sudeste 0 -- -- 38
2021-02-16 16:00:00 14.1 7 Sur 29 Sur 0 -- -- 37
2021-02-16 15:00:00 13.8 5 Sudeste 14 Sudeste 0 -- -- 39
2021-02-16 14:00:00 12.3 2 Sur 7 Sur 0 -- -- 48
2021-02-16 13:00:00 10.6 2 Este 9 Este 0 -- -- 56
2021-02-16 12:00:00 7.8 3 Noroeste 8 Nordeste 0 -- -- 60
2021-02-16 11:00:00 5 2 Sudeste 10 Sudeste 0 -- -- 71
2021-02-16 10:00:00 1.3 3 Noroeste 5 Noroeste 0 -- -- 88
2021-02-16 09:00:00 -0.5 2 Norte 6 Este 0 -- -- 94
2021-02-16 08:00:00 -1.3 0 Calma 4 Oeste 0 -- -- 95
2021-02-16 07:00:00 -1.4 2 Noroeste 5 Oeste 0 -- -- 95
2021-02-16 06:00:00 -1.3 0 Calma 3 Nordeste 0 -- -- 95
2021-02-16 05:00:00 -1.1 0 Calma 3 Oeste 0 -- -- 95
2021-02-16 04:00:00 -0.8 0 Calma 3 Oeste 0 -- -- 95
2021-02-16 03:00:00 -0.3 0 Calma 3 Sudoeste 0 -- -- 94
2021-02-16 02:00:00 0.2 0 Calma 3 Sudoeste 0 -- -- 92
2021-02-16 01:00:00 0.8 0 Calma 3 Sudoeste 0 -- -- 92
2021-02-16 00:00:00 1.4 0 Calma 3 Sudoeste 0 -- -- 91
2021-02-15 23:00:00 2.1 0 Calma 2 Noroeste 0 -- -- 89
2021-02-15 22:00:00 2.8 0 Calma 2 Noroeste 0 -- -- 87
2021-02-15 21:00:00 3.7 0 Calma 3 Oeste 0 -- -- 84
2021-02-15 20:00:00 5 0 Calma 5 Sur 0 -- -- 83
2021-02-15 19:00:00 7.2 0 Calma 11 Oeste 0 -- -- 77
2021-02-15 18:00:00 9 3 Noroeste 21 Sudoeste 0 -- -- 70
2021-02-15 17:00:00 9.6 3 Sur 10 Sur 0 -- -- 66
2021-02-15 16:00:00 11.6 4 Este 9 Sudeste 0 -- -- 60
2021-02-15 15:00:00 11.2 5 Sudeste 7 Sudeste 0 -- -- 58
2021-02-15 14:00:00 9.7 3 Sudeste 6 Sudeste 0 -- -- 59
2021-02-15 13:00:00 8.7 4 Sudeste 6 Sudeste 0 -- -- 63
2021-02-15 12:00:00 6.2 0 Calma 4 Este 0 -- -- 72
2021-02-15 11:00:00 4 2 Este 4 Este 0 -- -- 82
2021-02-15 10:00:00 1.8 0 Calma 2 Sudoeste 0 -- -- 89
2021-02-15 09:00:00 1.7 0 Calma 4 Sur 0 -- -- 87
2021-02-15 08:00:00 2.5 3 Sur 12 Oeste 0 -- -- 82
2021-02-15 07:00:00 3.2 4 Noroeste 10 Noroeste 0 -- -- 81
2021-02-15 06:00:00 3.2 3 Noroeste 6 Oeste 0 -- -- 83
2021-02-15 05:00:00 2.8 0 Calma 2 Oeste 0 -- -- 91
2021-02-15 04:00:00 2.8 0 Calma 2 Noroeste 0 -- -- 91
2021-02-15 03:00:00 2.7 0 Calma 2 Noroeste 0 -- -- 91
2021-02-15 02:00:00 2.6 0 Calma 2 Sur 0 -- -- 90
2021-02-15 01:00:00 2.5 0 Calma 3 Sudeste 0 -- -- 91
2021-02-15 00:00:00 2.2 0 Calma 4 Sudeste 0 -- -- 90
2021-02-14 23:00:00 2 0 Calma 4 Sudeste 0 -- -- 89
2021-02-14 22:00:00 2.4 0 Calma 2 Norte 0 -- -- 87
2021-02-14 21:00:00 3.3 0 Calma 4 Sur 0 -- -- 87
2021-02-14 20:00:00 4.2 2 Sudeste 9 Este 0 -- -- 81
2021-02-14 19:00:00 6.2 3 Noroeste 9 Sur 0 -- -- 74
2021-02-14 18:00:00 7.4 2 Nordeste 9 Oeste 0 -- -- 69
2021-02-14 17:00:00 8 3 Norte 12 Noroeste 0 -- -- 65
2021-02-14 16:00:00 9.8 3 Este 22 Este 0 -- -- 59
2021-02-14 15:00:00 10.3 8 Sudeste 18 Sudeste 0 -- -- 53
2021-02-14 14:00:00 10.6 8 Sudeste 17 Sudeste 0 -- -- 52
2021-02-14 13:00:00 9.4 9 Sudeste 21 Este 0 -- -- 56
2021-02-14 12:00:00 6.2 2 Nordeste 6 Sudeste 0 -- -- 62
2021-02-14 11:00:00 2 2 Este 4 Sudeste 0 -- -- 74
2021-02-14 10:00:00 -1.6 0 Calma 3 Oeste 0 -- -- 86
2021-02-14 09:00:00 -2 2 Sur 3 Sur 0 -- -- 86
2021-02-14 08:00:00 -2.2 0 Calma 2 Oeste 0 -- -- 86
2021-02-14 07:00:00 -2 0 Calma 2 Oeste 0 -- -- 85
2021-02-14 06:00:00 -1.7 0 Calma 4 Oeste 0 -- -- 84
2021-02-14 05:00:00 -1.7 2 Sudoeste 6 Sudeste 0 -- -- 85
2021-02-14 04:00:00 -1.5 0 Calma 4 Sudeste 0 -- -- 85
2021-02-14 03:00:00 -1.2 0 Calma 4 Este 0 -- -- 86
2021-02-14 02:00:00 -0.9 0 Calma 0 Calma 0 -- -- 87
2021-02-14 01:00:00 -0.5 0 Calma 0 Calma 0 -- -- 85
2021-02-14 00:00:00 0.1 2 Oeste 4 Sudoeste 0 -- -- 84
2021-02-13 23:00:00 0.9 0 Calma 5 Oeste 0 -- -- 84
2021-02-13 22:00:00 1.9 0 Calma 4 Este 0 -- -- 82
2021-02-13 21:00:00 2.9 2 Oeste 6 Sudeste 0 -- -- 78
2021-02-13 20:00:00 4 0 Calma 5 Sur 0 -- -- 74
2021-02-13 19:00:00 5 0 Calma 13 Norte 0 -- -- 69
2021-02-13 18:00:00 7.7 3 Sudeste 12 Noroeste 0 -- -- 62
2021-02-13 17:00:00 9.2 2 Sudoeste 12 Norte 0 -- -- 53
2021-02-13 16:00:00 10.4 4 Norte 16 Norte 0 -- -- 45
2021-02-13 15:00:00 11.2 5 Este 18 Sur 0 -- -- 44
2021-02-13 14:00:00 10.7 12 Sudeste 26 Sudeste 0 -- -- 67
2021-02-13 13:00:00 10.1 4 Sudeste 13 Sur 0 -- -- 68
2021-02-13 08:00:00 2.4 0 Calma 6 Noroeste 0 -- -- 91
2021-02-13 07:00:00 1.4 0 Calma 5 Nordeste 0 -- -- 93
2021-02-13 06:00:00 1.7 2 Sudoeste 8 Sur 0 -- -- 90
2021-02-13 05:00:00 2.5 2 Sur 6 Sur 0 -- -- 87
2021-02-13 04:00:00 3.7 2 Norte 18 Oeste 0 -- -- 83
2021-02-13 03:00:00 3.2 2 Sur 17 Noroeste 0 -- -- 84
2021-02-13 02:00:00 3.9 0 Calma 20 Norte 0 -- -- 84
2021-02-13 01:00:00 6 6 Norte 34 Noroeste 0 -- -- 66
2021-02-13 00:00:00 6.6 13 Norte 34 Norte 0 -- -- 66
2021-02-12 23:00:00 6.3 8 Noroeste 33 Norte 0 -- -- 69
2021-02-12 22:00:00 6.7 12 Noroeste 34 Noroeste 0.2 -- -- 69
2021-02-12 21:00:00 6.9 14 Noroeste 30 Norte 0 -- -- 70
2021-02-12 20:00:00 6.9 7 Norte 30 Norte 0 -- -- 76
2021-02-12 19:00:00 7.4 9 Noroeste 36 Oeste 0.2 -- -- 71
2021-02-12 18:00:00 7.6 8 Noroeste 29 Noroeste 0.2 -- -- 76
2021-02-12 17:00:00 7.5 10 Noroeste 31 Noroeste 0.8 -- -- 81
2021-02-12 16:00:00 8.3 9 Noroeste 22 Noroeste 0.2 -- -- 73
2021-02-12 15:00:00 8.7 8 Norte 22 Noroeste 0 -- -- 80
2021-02-12 14:00:00 7.7 0 Calma 7 Norte 0.6 -- -- 95
2021-02-12 13:00:00 7.1 0 Calma 17 Sudeste 1 -- -- 97
2021-02-12 12:00:00 7.1 5 Sudeste 14 Sudeste 0.2 -- -- 99
2021-02-12 11:00:00 5.4 0 Calma 4 Nordeste 1 -- -- 99
2021-02-12 10:00:00 4.6 0 Calma 4 Sudeste 2.6 -- -- 99
2021-02-12 09:00:00 4.1 0 Calma 5 Noroeste 2.4 -- -- 98
2021-02-12 08:00:00 3.8 2 Oeste 5 Noroeste 0.2 -- -- 98
2021-02-12 07:00:00 3.5 4 Sudeste 8 Sudeste 0 -- -- 98
2021-02-12 06:00:00 3 0 Calma 5 Sur 0 -- -- 98
2021-02-12 05:00:00 2.8 2 Sur 4 Sur 0 -- -- 98
2021-02-12 04:00:00 2.5 0 Calma 4 Sudeste 0 -- -- 97
2021-02-12 03:00:00 2.5 0 Calma 5 Sudeste 0 -- -- 97
2021-02-12 02:00:00 2.5 0 Calma 4 Este 0 -- -- 97
2021-02-12 01:00:00 2.6 0 Calma 4 Sur 0 -- -- 96
2021-02-12 00:00:00 3.1 0 Calma 4 Oeste 0 -- -- 95
2021-02-11 23:00:00 3.6 2 Sudeste 6 Sudoeste 0 -- -- 95
2021-02-11 22:00:00 3.5 0 Calma 3 Oeste 0 -- -- 96
2021-02-11 21:00:00 3.4 0 Calma 4 Norte 0 -- -- 95
2021-02-11 20:00:00 3.5 3 Noroeste 4 Noroeste 0 -- -- 93
2021-02-11 19:00:00 4.5 0 Calma 3 Noroeste 0 -- -- 90
2021-02-11 18:00:00 6.6 2 Oeste 12 Sur 0 -- -- 85
2021-02-11 17:00:00 8.5 0 Calma 8 Sudeste 0 -- -- 81
2021-02-11 16:00:00 9.8 3 Oeste 15 Sur 0 -- -- 74
2021-02-11 15:00:00 9.7 3 Sudeste 14 Sudeste 0 -- -- 69
2021-02-11 14:00:00 9.2 5 Sur 16 Sudoeste 0 -- -- 64
2021-02-11 13:00:00 8.2 2 Nordeste 5 Sudeste 0 -- -- 60
2021-02-11 12:00:00 3.9 0 Calma 7 Sudeste 0 -- -- 75
2021-02-11 11:00:00 0.5 2 Nordeste 8 Este 0 -- -- 91
2021-02-11 10:00:00 -2.4 0 Calma 3 Sudeste 0 -- -- 97
2021-02-11 09:00:00 -2.9 0 Calma 4 Sudeste 0 -- -- 96
2021-02-11 08:00:00 -3.4 0 Calma 3 Oeste 0 -- -- 96
2021-02-11 07:00:00 -3.2 0 Calma 3 Sudoeste 0 -- -- 96
2021-02-11 06:00:00 -2.9 0 Calma 4 Sur 0 -- -- 96
2021-02-11 05:00:00 -2.6 0 Calma 3 Sudoeste 0 -- -- 96
2021-02-11 04:00:00 -2.4 0 Calma 3 Sudeste 0 -- -- 96
2021-02-11 03:00:00 -2.1 0 Calma 3 Sur 0 -- -- 96
2021-02-11 02:00:00 -1.7 0 Calma 3 Oeste 0 -- -- 96
2021-02-11 01:00:00 -1.2 0 Calma 5 Oeste 0 -- -- 96
2021-02-11 00:00:00 -0.8 0 Calma 4 Sur 0 -- -- 96
2021-02-10 23:00:00 -0.6 0 Calma 4 Oeste 0 -- -- 96
2021-02-10 22:00:00 -0.1 0 Calma 4 Noroeste 0.2 -- -- 95
2021-02-10 21:00:00 0.6 3 Sur 8 Oeste 0 -- -- 93
2021-02-10 20:00:00 1.3 3 Noroeste 8 Norte 0 -- -- 92
2021-02-10 19:00:00 2.5 3 Oeste 23 Norte 0 -- -- 88
2021-02-10 18:00:00 4.3 7 Noroeste 25 Norte 0 -- -- 78
2021-02-10 17:00:00 4.4 2 Oeste 9 Norte 0 -- -- 85
2021-02-10 16:00:00 4.2 5 Norte 14 Noroeste 0 -- -- 83
2021-02-10 15:00:00 4.3 4 Noroeste 10 Noroeste 0 -- -- 79
2021-02-10 14:00:00 4.2 4 Norte 24 Noroeste 0 -- -- 79
2021-02-10 13:00:00 5.2 3 Noroeste 13 Norte 0 -- -- 79
2021-02-10 12:00:00 4.1 2 Nordeste 5 Este 0 -- -- 87
2021-02-10 11:00:00 1.8 0 Calma 5 Sudeste 0 -- -- 98
2021-02-10 10:00:00 0.9 0 Calma 2 Sudeste 0.6 -- -- 99
2021-02-10 09:00:00 0.3 0 Calma 2 Norte 1.2 -- -- 99
2021-02-10 08:00:00 0.2 0 Calma 2 Norte 0.8 -- -- 99
2021-02-10 07:00:00 0.2 0 Calma 6 Sur 1 -- -- 99
2021-02-10 06:00:00 0.3 0 Calma 4 Este 0.4 -- -- 98
2021-02-10 05:00:00 0.4 2 Noroeste 5 Oeste 0 -- -- 98
2021-02-10 04:00:00 0.4 0 Calma 5 Sur 0 -- -- 98
2021-02-10 03:00:00 0.5 3 Sudeste 21 Este 1 -- -- 97
2021-02-10 02:00:00 0.9 4 Nordeste 17 Sur 0.4 -- -- 98
2021-02-10 01:00:00 0.6 4 Este 13 Sudeste 0.8 -- -- 99
2021-02-10 00:00:00 0.3 0 Calma 5 Este 0.2 -- -- 99
2021-02-09 23:00:00 0.2 0 Calma 6 Sur 0 -- -- 99
2021-02-09 22:00:00 0.2 0 Calma 6 Sur 0 -- -- 99
2021-02-09 21:00:00 0.2 0 Calma 4 Oeste 0 -- -- 98
2021-02-09 20:00:00 0.2 0 Calma 5 Noroeste 0.2 -- -- 98
2021-02-09 19:00:00 0.2 0 Calma 3 Noroeste 1.8 -- -- 98
2021-02-09 18:00:00 0.2 0 Calma 2 Este 3.8 -- -- 98
2021-02-09 17:00:00 0.3 0 Calma 5 Sur 4.2 -- -- 97
2021-02-09 16:00:00 0.7 0 Calma 6 Sur 2.8 -- -- 97
2021-02-09 15:00:00 1.4 0 Calma 26 Norte 1.4 -- -- 97
2021-02-09 14:00:00 1.6 3 Noroeste 22 Este 2.6 -- -- 98
2021-02-09 13:00:00 1.1 2 Sudoeste 5 Sur 1 -- -- 98
2021-02-09 12:00:00 0.7 0 Calma 3 Sur 1.2 -- -- 98
2021-02-09 11:00:00 0.5 0 Calma 2 Oeste 2 -- -- 98
2021-02-09 10:00:00 0.4 0 Calma 8 Sur 1.2 -- -- 98
2021-02-09 09:00:00 0.1 2 Sudeste 6 Norte 1 -- -- 98
2021-02-09 08:00:00 0 0 Calma 0 Calma 0.4 -- -- 98
2021-02-09 07:00:00 -0.4 0 Calma 5 Este 0 -- -- 98
2021-02-09 06:00:00 -0.6 0 Calma 5 Sudoeste 0 -- -- 98
2021-02-09 05:00:00 -0.5 0 Calma 5 Oeste 0 -- -- 98
2021-02-09 04:00:00 0 0 Calma 3 Oeste -- -- -- 98
2021-02-09 03:00:00 0 0 Calma 3 Oeste 0 -- -- 97
2021-02-09 02:00:00 0 0 Calma 8 Sudoeste 0 -- -- 97
2021-02-09 01:00:00 0.4 3 Norte 18 Sudeste 0 -- -- 97
2021-02-09 00:00:00 0.2 0 Calma 4 Noroeste 0 -- -- 97
2021-02-08 23:00:00 0.7 0 Calma 3 Noroeste 0 -- -- 97
2021-02-08 22:00:00 1.2 0 Calma 3 Sur 0 -- -- 97
2021-02-08 21:00:00 1.2 0 Calma 5 Sur 0 -- -- 97
2021-02-08 20:00:00 1.1 0 Calma 3 Sudoeste 0 -- -- 96
2021-02-08 19:00:00 1.7 2 Noroeste 5 Sudoeste 0 -- -- 93
2021-02-08 18:00:00 3.3 0 Calma 3 Oeste 0 -- -- 93
2021-02-08 17:00:00 3.9 0 Calma 4 Noroeste 0.4 -- -- 92
2021-02-08 16:00:00 3.6 0 Calma 4 Sudeste 0 -- -- 91
2021-02-08 15:00:00 3 3 Sudeste 15 Sudeste 0.2 -- -- 94
2021-02-08 14:00:00 2.2 4 Este 14 Este 0.4 -- -- 95
2021-02-08 13:00:00 1.9 0 Calma 3 Sudeste 0.4 -- -- 94
2021-02-08 12:00:00 1.7 0 Calma 3 Sur 0.4 -- -- 95
2021-02-08 11:00:00 1.2 0 Calma 3 Oeste 0.2 -- -- 96
2021-02-08 10:00:00 0.8 0 Calma 8 Sudoeste 0.2 -- -- 97
2021-02-08 09:00:00 0.5 0 Calma 6 Norte 0.2 -- -- 96
2021-02-08 08:00:00 0.3 0 Calma 3 Sudoeste 0.4 -- -- 97
2021-02-08 07:00:00 0.3 0 Calma 3 Norte 1 -- -- 96
2021-02-08 06:00:00 0.3 0 Calma 3 Noroeste 1.6 -- -- 96
2021-02-08 05:00:00 0.5 0 Calma 3 Sudoeste 0.8 -- -- 95
2021-02-08 04:00:00 0.7 0 Calma 4 Noroeste 0.2 -- -- 94
2021-02-08 03:00:00 0.9 0 Calma 14 Sudeste 0 -- -- 93
2021-02-08 02:00:00 0.8 0 Calma 6 Sudeste 0 -- -- 92
2021-02-08 01:00:00 1.1 0 Calma 4 Sudeste 0 -- -- 89
2021-02-08 00:00:00 1.4 0 Calma 8 Sur 0 -- -- 86
2021-02-07 23:00:00 2 3 Sudeste 6 Sudeste 0 -- -- 84
2021-02-07 22:00:00 2.5 0 Calma 3 Noroeste 0 -- -- 84
2021-02-07 21:00:00 2.7 4 Sudeste 18 Sur 0 -- -- 82
2021-02-07 20:00:00 2.9 8 Sur 20 Sudeste 0 -- -- 82
2021-02-07 19:00:00 3.4 6 Sur 21 Sur 0 -- -- 80
2021-02-07 18:00:00 4.7 6 Sudeste 13 Este 0 -- -- 72
2021-02-07 17:00:00 5.8 3 Noroeste 17 Norte 0 -- -- 51
2021-02-07 16:00:00 6.3 4 Norte 17 Noroeste 0 -- -- 47
2021-02-07 15:00:00 7 5 Norte 23 Noroeste 0 -- -- 45
2021-02-07 14:00:00 6.6 8 Noroeste 30 Norte 0 -- -- 48
2021-02-07 13:00:00 6.3 9 Norte 26 Norte 0 -- -- 46
2021-02-07 12:00:00 5.7 9 Norte 21 Noroeste 0 -- -- 49
2021-02-07 11:00:00 3.9 5 Norte 18 Noroeste 0 -- -- 54
2021-02-07 10:00:00 -0.6 2 Noroeste 10 Norte 0 -- -- 76
2021-02-07 09:00:00 -0.6 3 Noroeste 13 Norte 0 -- -- 78
2021-02-07 08:00:00 -0.6 3 Noroeste 13 Noroeste 0 -- -- 80
2021-02-07 07:00:00 0.3 2 Noroeste 16 Noroeste 0 -- -- 76
2021-02-07 06:00:00 1.3 5 Noroeste 22 Noroeste 0 -- -- 63
2021-02-07 05:00:00 1.6 7 Norte 18 Norte 0 -- -- 65
2021-02-07 04:00:00 1.3 4 Norte 13 Nordeste 0 -- -- 78
2021-02-07 03:00:00 1.5 3 Noroeste 12 Norte 0 -- -- 83
2021-02-07 02:00:00 2.5 4 Norte 19 Norte 0 -- -- 71
2021-02-07 01:00:00 2.6 3 Norte 15 Nordeste 0 -- -- 76
2021-02-07 00:00:00 2.7 3 Oeste 13 Nordeste 0 -- -- 87
2021-02-06 23:00:00 3.2 3 Oeste 7 Norte 0 -- -- 85
2021-02-06 22:00:00 3.8 3 Oeste 11 Nordeste 0 -- -- 90
2021-02-06 21:00:00 4.1 2 Sudoeste 17 Norte 0 -- -- 89
2021-02-06 20:00:00 4.6 0 Calma 3 Oeste 0.2 -- -- 94
2021-02-06 19:00:00 4.8 0 Calma 0 Calma 0.2 -- -- 92
2021-02-06 18:00:00 5 0 Calma 16 Noroeste 1.2 -- -- 89
2021-02-06 17:00:00 6 3 Noroeste 21 Sudoeste 1.4 -- -- 84
2021-02-06 16:00:00 6.5 5 Oeste 22 Sudoeste 0.8 -- -- 83
2021-02-06 15:00:00 7.3 4 Noroeste 18 Sudeste 0.2 -- -- 83
2021-02-06 14:00:00 7.2 2 Norte 14 Este 0 -- -- 83
2021-02-06 13:00:00 6.4 6 Sudoeste 15 Oeste 0 -- -- 86
2021-02-06 12:00:00 6.1 6 Norte 16 Oeste 0.6 -- -- 90
2021-02-06 11:00:00 5.5 0 Calma 7 Sudoeste 0 -- -- 89
2021-02-06 10:00:00 5.2 2 Sur 13 Noroeste 0.6 -- -- 91
2021-02-06 09:00:00 5.2 4 Noroeste 22 Este 3.6 -- -- 87
2021-02-06 08:00:00 7.7 6 Oeste 28 Sudoeste 0.4 -- -- 69
2021-02-06 07:00:00 7.4 5 Sudeste 13 Sudoeste 0 -- -- 72
2021-02-06 06:00:00 6.2 4 Sudoeste 8 Sudoeste 0 -- -- 85
2021-02-06 05:00:00 7.7 3 Oeste 10 Sudoeste 0 -- -- 81
2021-02-06 04:00:00 9.5 2 Oeste 14 Este 0 -- -- 63
2021-02-06 03:00:00 10.6 3 Noroeste 35 Sur 0 -- -- 53
2021-02-06 02:00:00 11.6 0 Calma 31 Sudoeste 0 -- -- 46
2021-02-06 01:00:00 12.5 10 Sudoeste 40 Sudoeste 0 -- -- 36
2021-02-06 00:00:00 12.4 12 Sudoeste 41 Oeste 0 -- -- 37
2021-02-05 23:00:00 11.7 10 Sudoeste 26 Sur 0 -- -- 39
2021-02-05 22:00:00 12 5 Sudeste 26 Sur 0 -- -- 45
2021-02-05 21:00:00 11.7 2 Oeste 28 Sudeste 0 -- -- 52
2021-02-05 20:00:00 12.4 3 Sudeste 30 Sur 0 -- -- 48
2021-02-05 19:00:00 11.5 3 Noroeste 26 Sudoeste 0 -- -- 53
2021-02-05 18:00:00 13.9 10 Sudoeste 27 Sur 0 -- -- 38
2021-02-05 17:00:00 13.4 4 Sur 15 Sur 0 -- -- 44
2021-02-05 16:00:00 12.9 0 Calma 6 Norte 0 -- -- 59
2021-02-05 15:00:00 13.5 2 Noroeste 17 Norte 0 -- -- 52
2021-02-05 14:00:00 14.1 5 Sudoeste 21 Sudeste 0 -- -- 41
2021-02-05 13:00:00 13.6 8 Sur 23 Oeste 0 -- -- 44
2021-02-05 12:00:00 9.2 3 Este 18 Sudoeste 0 -- -- 75
2021-02-05 11:00:00 6.7 3 Sur 6 Noroeste 0 -- -- 86
2021-02-05 10:00:00 5.7 3 Sudeste 8 Sur 0 -- -- 90
2021-02-05 09:00:00 4.6 0 Calma 4 Sudeste 0 -- -- 93
2021-02-05 08:00:00 4.4 0 Calma 4 Oeste 0 -- -- 92
2021-02-05 07:00:00 4.8 0 Calma 4 Sudeste 0 -- -- 91
2021-02-05 06:00:00 5.3 0 Calma 4 Sudeste 0 -- -- 89
2021-02-05 05:00:00 6.3 0 Calma 7 Sudoeste 0.2 -- -- 87
2021-02-05 04:00:00 6.7 3 Oeste 6 Oeste 0 -- -- 88
2021-02-05 03:00:00 6.9 2 Oeste 6 Sur 0 -- -- 85
2021-02-05 02:00:00 7.3 2 Oeste 6 Sur 0 -- -- 80
2021-02-05 01:00:00 7.7 0 Calma 8 Este 0 -- -- 78
2021-02-05 00:00:00 7.9 0 Calma 8 Este 0 -- -- 76
2021-02-04 23:00:00 7.6 2 Oeste 11 Noroeste 0 -- -- 75
2021-02-04 22:00:00 8.1 5 Sur 12 Nordeste 0 -- -- 70
2021-02-04 21:00:00 7.5 3 Norte 8 Este 0 -- -- 74
2021-02-04 20:00:00 7.9 3 Sudoeste 9 Norte 0 -- -- 72
2021-02-04 19:00:00 8.8 0 Calma 14 Sudoeste 0 -- -- 69
2021-02-04 18:00:00 11.3 3 Noroeste 17 Sudeste 0 -- -- 51
2021-02-04 17:00:00 12.9 6 Sudoeste 22 Sudeste 0 -- -- 43
2021-02-04 16:00:00 13.5 5 Oeste 28 Sudoeste 0 -- -- 43
2021-02-04 15:00:00 13.5 5 Sur 18 Sudeste 0 -- -- 47
2021-02-04 14:00:00 12.3 3 Este 7 Sudeste 0 -- -- 66
2021-02-04 13:00:00 11.1 2 Sudeste 5 Sudeste 0 -- -- 75
2021-02-04 12:00:00 9.3 2 Sudeste 4 Este 0 -- -- 84
2021-02-04 11:00:00 7.9 0 Calma 3 Norte 0 -- -- 93
2021-02-04 10:00:00 7 0 Calma 6 Sudeste 0 -- -- 95
2021-02-04 09:00:00 6.8 3 Oeste 5 Sur 0.2 -- -- 95
2021-02-04 08:00:00 6.9 0 Calma 5 Este 0 -- -- 92
2021-02-04 07:00:00 7.5 0 Calma 18 Oeste 0 -- -- 89
2021-02-04 06:00:00 8.1 3 Este 12 Sudeste 0 -- -- 87
2021-02-04 05:00:00 7.4 2 Norte 9 Noroeste 0 -- -- 86
2021-02-04 04:00:00 7.5 2 Noroeste 9 Sur 0 -- -- 85
2021-02-04 03:00:00 8 3 Noroeste 19 Oeste 0 -- -- 82
2021-02-04 02:00:00 9.3 8 Sur 26 Sur 0 -- -- 72
2021-02-04 01:00:00 8.8 4 Sur 20 Sur 0 -- -- 76
2021-02-04 00:00:00 6.3 4 Sudeste 14 Sudoeste 0 -- -- 91
2021-02-03 23:00:00 6.3 2 Oeste 6 Este 0 -- -- 92
2021-02-03 22:00:00 6.6 0 Calma 4 Este 0 -- -- 91
2021-02-03 21:00:00 7.1 0 Calma 7 Este 0 -- -- 90
2021-02-03 20:00:00 7.8 2 Sudeste 19 Oeste 0 -- -- 85
2021-02-03 19:00:00 9.1 7 Sudoeste 26 Sudoeste 0 -- -- 77
2021-02-03 18:00:00 9.2 5 Sudoeste 20 Sudoeste 0 -- -- 77
2021-02-03 17:00:00 9.3 5 Sudoeste 16 Sudoeste 0 -- -- 78
2021-02-03 16:00:00 9.4 3 Sudoeste 17 Oeste 0.4 -- -- 82
2021-02-03 15:00:00 9.6 4 Norte 24 Oeste 0 -- -- 77
2021-02-03 14:00:00 9.4 11 Oeste 26 Oeste 0 -- -- 76
2021-02-03 13:00:00 8.7 3 Noroeste 26 Oeste 0.4 -- -- 82
2021-02-03 12:00:00 8.5 13 Sudoeste 29 Sudoeste 0.2 -- -- 82
2021-02-03 11:00:00 5.8 6 Sudoeste 18 Sudoeste 0 -- -- 99
2021-02-03 10:00:00 4.2 3 Oeste 6 Este 0 -- -- 100
2021-02-03 09:00:00 3.3 2 Sudoeste 7 Sur 0 -- -- 99
2021-02-03 08:00:00 2.6 2 Noroeste 5 Noroeste 0 -- -- 99
2021-02-03 07:00:00 1.9 0 Calma 5 Norte 0 -- -- 99
2021-02-03 06:00:00 1.6 2 Oeste 6 Sudeste 0 -- -- 98
2021-02-03 05:00:00 1.4 2 Oeste 6 Sur 0 -- -- 98
2021-02-03 04:00:00 1.6 0 Calma 5 Sudeste 0 -- -- 98
2021-02-03 03:00:00 2 0 Calma 5 Noroeste 0 -- -- 98
2021-02-03 02:00:00 2.3 2 Norte 4 Sudeste 0 -- -- 97
2021-02-03 01:00:00 2.7 0 Calma 5 Sudeste 0 -- -- 96
2021-02-03 00:00:00 3.2 0 Calma 4 Noroeste 0 -- -- 96
2021-02-02 23:00:00 3.9 0 Calma 3 Norte 0 -- -- 95
2021-02-02 22:00:00 4.7 0 Calma 4 Sudeste 0 -- -- 94
2021-02-02 21:00:00 5.5 0 Calma 3 Sudeste 0 -- -- 93
2021-02-02 20:00:00 6.5 0 Calma 4 Este 0 -- -- 90
2021-02-02 19:00:00 7.3 0 Calma 5 Sudeste 0 -- -- 88
2021-02-02 18:00:00 8.2 0 Calma 7 Sudoeste 0 -- -- 85
2021-02-02 17:00:00 9.4 0 Calma 13 Oeste 0 -- -- 80
2021-02-02 16:00:00 10.9 2 Sur 9 Sudoeste 0 -- -- 78
2021-02-02 15:00:00 10.8 5 Noroeste 13 Norte 0 -- -- 66
2021-02-02 14:00:00 10.3 5 Norte 11 Norte 0 -- -- 71
2021-02-02 13:00:00 8.2 0 Calma 5 Este 0 -- -- 86
2021-02-02 12:00:00 6.6 0 Calma 5 Sudeste 0 -- -- 88
2021-02-02 11:00:00 4.3 0 Calma 5 Sudeste 0 -- -- 100
2021-02-02 10:00:00 2 0 Calma 4 Sur 0 -- -- 99
2021-02-02 09:00:00 1.2 0 Calma 5 Sur 0 -- -- 98
2021-02-02 08:00:00 1.6 0 Calma -- -- 0 -- -- 98
2021-02-02 07:00:00 2.2 0 Calma 3 Sur 0 -- -- 98
2021-02-02 06:00:00 3 0 Calma 3 Oeste 0 -- -- 97
2021-02-02 05:00:00 3.2 0 Calma 4 Sur 0 -- -- 97
2021-02-02 04:00:00 3.9 2 Norte 6 Sudeste 0 -- -- 96
2021-02-02 03:00:00 4.7 0 Calma 4 Nordeste 0 -- -- 96
2021-02-02 02:00:00 5.2 3 Norte 5 Noroeste 0 -- -- 96
2021-02-02 01:00:00 5.4 0 Calma 5 Sudoeste 0 -- -- 95
2021-02-02 00:00:00 5.4 2 Sudoeste 4 Norte 0.2 -- -- 95
2021-02-01 23:00:00 5.2 2 Oeste 6 Noroeste 0 -- -- 95
2021-02-01 22:00:00 5.4 2 Oeste 13 Oeste 0 -- -- 92
2021-02-01 21:00:00 6.4 2 Sur 28 Norte 0 -- -- 88
2021-02-01 20:00:00 6.2 3 Sudoeste 15 Noroeste 0.4 -- -- 92
2021-02-01 19:00:00 7.2 5 Noroeste 18 Noroeste 1 -- -- 86
2021-02-01 18:00:00 7.1 3 Noroeste 13 Noroeste 1.4 -- -- 87
2021-02-01 17:00:00 7.4 3 Oeste 23 Norte 1.6 -- -- 88
2021-02-01 16:00:00 7.3 5 Noroeste 19 Noroeste 1.4 -- -- 85
2021-02-01 15:00:00 7 4 Sur 15 Noroeste 1.2 -- -- 89
2021-02-01 14:00:00 7.3 7 Norte 16 Norte 1.2 -- -- 81
2021-02-01 13:00:00 7.1 4 Norte 14 Norte 0.8 -- -- 85
2021-02-01 12:00:00 7.2 5 Noroeste 24 Oeste 0.2 -- -- 78
2021-02-01 11:00:00 6.6 8 Norte 32 Norte 0.2 -- -- 82
2021-02-01 10:00:00 5.7 4 Norte 26 Noroeste 0.6 -- -- 87
2021-02-01 09:00:00 5.5 6 Noroeste 17 Noroeste 0.4 -- -- 85
2021-02-01 08:00:00 4.4 3 Oeste 16 Oeste 0.6 -- -- 95
2021-02-01 07:00:00 4 2 Sudoeste 9 Sudoeste 1 -- -- 97
2021-02-01 06:00:00 4 2 Oeste 12 Oeste 0.6 -- -- 96
2021-02-01 05:00:00 4.1 2 Oeste 5 Sur 1.2 -- -- 96
2021-02-01 04:00:00 4.4 2 Oeste 10 Norte 1.4 -- -- 96
2021-02-01 03:00:00 4.5 3 Noroeste 8 Norte 1.4 -- -- 95
2021-02-01 02:00:00 4.7 0 Calma 7 Sudoeste 1.4 -- -- 95
2021-02-01 01:00:00 5 2 Oeste 9 Norte 1.2 -- -- 94
2021-02-01 00:00:00 5.5 3 Sudoeste 11 Sur 1 -- -- 92
2021-01-31 23:00:00 5.7 4 Sur 19 Sur 1.2 -- -- 91
2021-01-31 22:00:00 6.2 2 Noroeste 26 Sur 0.4 -- -- 86
2021-01-31 21:00:00 5 3 Oeste 10 Noroeste 0 -- -- 83
2021-01-31 20:00:00 5.2 2 Noroeste 6 Sudeste 0 -- -- 80
2021-01-31 19:00:00 6.1 4 Noroeste 18 Norte 0 -- -- 79
2021-01-31 18:00:00 8.5 6 Norte 24 Norte 0 -- -- 61
2021-01-31 17:00:00 9.7 9 Noroeste 27 Noroeste 0 -- -- 61
2021-01-31 16:00:00 8.5 5 Noroeste 10 Noroeste 0.2 -- -- 85
2021-01-31 15:00:00 9.4 3 Norte 24 Noroeste 0.2 -- -- 77
2021-01-31 14:00:00 9.6 9 Norte 27 Norte 0 -- -- 63
2021-01-31 13:00:00 8.7 10 Norte 27 Noroeste 0 -- -- 64
2021-01-31 12:00:00 7.4 11 Norte 34 Norte 0 -- -- 64
2021-01-31 11:00:00 6.9 13 Noroeste 33 Noroeste 0 -- -- 70
2021-01-31 10:00:00 5.3 10 Noroeste 28 Norte 0.2 -- -- 80
2021-01-31 09:00:00 3.3 4 Norte 12 Noroeste 0.4 -- -- 98
2021-01-31 08:00:00 2.6 2 Oeste 7 Nordeste 1.2 -- -- 98
2021-01-31 07:00:00 2.2 0 Calma 5 Sudeste 2 -- -- 98
2021-01-31 06:00:00 2.5 0 Calma 5 Sudoeste 2.2 -- -- 97
2021-01-31 05:00:00 2.6 3 Oeste 8 Sudoeste 0.8 -- -- 98
2021-01-31 04:00:00 2.3 3 Noroeste 8 Norte 1.4 -- -- 98
2021-01-31 03:00:00 2.3 2 Noroeste 9 Oeste 1.2 -- -- 98
2021-01-31 02:00:00 1.9 0 Calma 5 Sudoeste 0.4 -- -- 98
2021-01-31 01:00:00 1.2 0 Calma 5 Noroeste 0.4 -- -- 97
2021-01-31 00:00:00 1.3 0 Calma 4 Sudoeste 0.2 -- -- 96
2021-01-30 23:00:00 1.6 0 Calma 8 Noroeste 0.6 -- -- 94
2021-01-30 22:00:00 1.8 3 Sudoeste 7 Sudeste 0 -- -- 94
2021-01-30 21:00:00 1.7 2 Noroeste 6 Sudoeste 0.2 -- -- 95
2021-01-30 20:00:00 2 2 Oeste 22 Noroeste 0 -- -- 92
2021-01-30 19:00:00 2.2 2 Noroeste 12 Norte 0 -- -- 92
2021-01-30 18:00:00 2.8 2 Sudoeste 8 Nordeste 0.6 -- -- 91
2021-01-30 17:00:00 3.8 4 Noroeste 14 Noroeste 0.6 -- -- 87
2021-01-30 16:00:00 4.4 2 Oeste 6 Este 0 -- -- 90
2021-01-30 15:00:00 4.3 3 Este 11 Noroeste 1.8 -- -- 90
2021-01-30 14:00:00 5.7 2 Norte 6 Sur 0.2 -- -- 85
2021-01-30 13:00:00 6.7 3 Sur 10 Oeste 0.6 -- -- 85
2021-01-30 12:00:00 5.4 5 Sudoeste 18 Sudoeste 0.8 -- -- 91
2021-01-30 11:00:00 5.7 2 Norte 5 Sudeste 0.2 -- -- 95
2021-01-30 10:00:00 5.1 0 Calma 9 Sur 0 -- -- 96
2021-01-30 09:00:00 5.2 5 Sudeste 11 Sudeste 2.2 -- -- 94
2021-01-30 08:00:00 6.1 2 Sur 22 Sudeste 3.6 -- -- 94
2021-01-30 07:00:00 6.7 6 Este 27 Oeste 2.2 -- -- 92
2021-01-30 06:00:00 4 5 Norte 12 Nordeste 0 -- -- 95
2021-01-30 05:00:00 2.9 0 Calma 13 Sudoeste 0 -- -- 93
2021-01-30 04:00:00 2.4 3 Oeste 8 Oeste 0 -- -- 95
2021-01-30 03:00:00 2 0 Calma 6 Noroeste 0 -- -- 93
2021-01-30 02:00:00 2.3 0 Calma 6 Sudeste 0 -- -- 92
2021-01-30 01:00:00 2.7 2 Nordeste 4 Noroeste 0 -- -- 91
2021-01-30 00:00:00 3.4 0 Calma 4 Sudoeste 0 -- -- 89